DK3ML-10 Weather Reports


Display with metric or nautical units.
time (UTC)temp
F
wind
direction
speed
MPH
gust
MPH
rain 1hr
in
rain 24hr
in
rain mn
in
humidity
%
barometer
mb
20190616091814 77 0.0 0.0 0.00 0.00 0.00 50 1018.0
20190616084814 74 0.0 0.0 0.00 0.00 0.00 52 1017.9
20190616081814 72 0.0 0.0 0.00 0.00 0.00 59 1017.8
20190616074813 71 0.0 0.0 0.00 0.00 0.00 65 1017.7
20190616071814 69 0.0 0.0 0.00 0.00 0.00 66 1017.6
20190616064814 67 0.0 0.0 0.00 0.00 0.00 70 1017.2
20190616061813 63 0.0 0.0 0.00 0.00 0.00 78 1016.9
20190616054814 62 0.0 0.0 0.00 0.00 0.00 83 1016.7
20190616051814 57 0.0 0.0 0.00 0.00 0.00 93 1016.5
20190616044814 55 0.0 0.0 0.00 0.00 0.00 94 1016.4
20190616041814 55 0.0 0.0 0.00 0.00 0.00 94 1016.4
20190616034813 55 0.0 0.0 0.00 0.00 0.00 93 1016.6
20190616031814 55 0.0 0.0 0.00 0.00 0.00 91 1016.3
20190616024814 55 0.0 0.0 0.00 0.00 0.00 91 1015.9
20190616021814 55 0.0 0.0 0.00 0.00 0.00 90 1015.8
20190616014815 56 0.0 0.0 0.00 0.00 0.00 90 1015.8
20190616011813 56 0.0 0.0 0.00 0.00 0.00 88 1015.9
20190616004814 57 0.0 0.0 0.00 0.00 0.00 87 1016.0
20190616001814 57 0.0 0.0 0.00 0.00 0.00 86 1015.7
20190615234814 58 0.0 0.0 0.00 0.00 0.00 86 1015.4
20190615231814 59 0.0 0.0 0.00 0.00 0.00 85 1015.2
20190615224813 59 0.0 0.0 0.00 0.00 0.00 85 1014.9
20190615221814 59 0.0 0.0 0.00 0.00 0.00 87 1014.8
20190615214814 59 0.0 0.0 0.00 0.00 0.00 88 1014.7
20190615154814 73 0.0 0.0 0.00 0.00 0.00 74 1009.8
20190615151814 72 0.0 0.0 0.00 0.00 0.00 76 1009.6
20190615144814 72 0.0 0.0 0.00 0.00 0.00 81 1009.6
20190615141814 70 0.0 0.0 0.00 0.00 0.00 87 1009.3
20190615134813 67 0.0 0.0 0.00 0.00 0.00 93 1009.1
20190615131814 68 0.0 0.0 0.00 0.00 0.00 95 1008.7
20190615124814 67 0.0 0.0 0.00 0.00 0.00 94 1008.2
20190615121813 68 0.0 0.0 0.00 0.00 0.00 92 1007.8
20190615114814 68 0.0 0.0 0.00 0.00 0.00 91 1007.6
20190615111814 68 0.0 0.0 0.00 0.00 0.00 90 1007.3
20190615104814 67 0.0 0.0 0.00 0.00 0.00 90 1007.2
20190615101814 67 0.0 0.0 0.00 0.00 0.00 91 1007.0
20190615094814 67 0.0 0.0 0.00 0.00 0.00 91 1006.8